首页
METAR-TAF:

METAR-TAF

机场 :

祖埃拉特, 毛里塔尼亚

纬度: 22-45-25N, 经度: 012-29-00W, 海拔: 344米

当前天气观测

该预报发布于4小时和49分钟前的15:00 UTC
风速10节,风向
温度 37°C
湿度 22%
气压 1015 hPa
能見度: 8000

METAR: GQPZ 251500Z 10010KT 8000 NSC 37/12 Q1015

时间: 19:49 (19:49 UTC)


TAF: 丢失

超过4000个机场的气象观测和天气预报(METAR&TAF报告)。

可查询的气象台以黄色和红色小点在地图上表示。

将鼠标移到小点上方,可查看气象台名称。

然后点击查看天气观测和预报。

如需切换地图:点击带黑十字的绿色按钮放大地图;点击带横线的绿色按钮缩小地图;或者点击绿色箭头查看邻近地区的地图。


METAR-TAF: